createdAt,value
2023-05-20T03:29:59.666Z,77.20
2023-05-20T03:32:27.186Z,77.15
2023-05-20T03:34:54.750Z,77.11
2023-05-20T03:37:21.796Z,77.19
2023-05-20T03:39:48.826Z,77.38
2023-05-20T03:42:16.212Z,77.54
2023-05-20T03:44:43.184Z,77.53
2023-05-20T03:47:10.175Z,77.43
2023-05-20T03:49:37.182Z,77.48
2023-05-20T03:52:04.314Z,77.60
2023-05-20T03:54:31.799Z,77.68
2023-05-20T03:57:01.345Z,77.54
2023-05-20T03:59:29.194Z,77.53
2023-05-20T04:01:59.921Z,77.64
2023-05-20T04:04:26.988Z,77.76
2023-05-20T04:06:54.673Z,77.87
2023-05-20T04:09:22.408Z,77.84
2023-05-20T04:11:49.631Z,77.74
2023-05-20T04:14:19.052Z,77.69
2023-05-20T04:16:46.623Z,77.84
2023-05-20T04:19:13.560Z,78.04
2023-05-20T04:21:44.467Z,77.91
2023-05-20T04:24:12.365Z,77.85
2023-05-20T04:26:40.183Z,77.89
2023-05-20T04:29:07.411Z,77.91
2023-05-20T04:31:35.227Z,78.00
2023-05-20T04:34:03.065Z,78.03
2023-05-20T04:36:30.877Z,77.90
2023-05-20T04:39:02.469Z,77.86
2023-05-20T04:41:29.911Z,77.85
2023-05-20T04:44:01.871Z,77.88
2023-05-20T04:46:29.084Z,77.67
2023-05-20T04:48:56.252Z,77.41
2023-05-20T04:51:23.182Z,77.42
2023-05-20T04:53:52.225Z,77.58
2023-05-20T04:56:19.092Z,77.58
2023-05-20T04:58:46.865Z,77.55
2023-05-20T05:01:13.954Z,77.47
2023-05-20T05:03:41.957Z,77.65
2023-05-20T05:06:09.414Z,77.85
2023-05-20T05:08:36.533Z,77.85
2023-05-20T05:11:06.580Z,77.65
2023-05-20T05:13:33.717Z,77.43
2023-05-20T05:16:01.503Z,77.28
2023-05-20T05:18:29.451Z,77.32
2023-05-20T05:21:03.498Z,77.55
2023-05-20T05:23:31.217Z,77.51
2023-05-20T05:25:59.301Z,77.48
2023-05-20T05:28:26.268Z,77.15
2023-05-20T05:30:55.462Z,77.09
2023-05-20T05:33:22.587Z,76.99
2023-05-20T05:35:50.043Z,77.06
2023-05-20T05:38:17.295Z,76.99
2023-05-20T05:40:44.511Z,76.77
2023-05-20T05:43:11.513Z,76.51
2023-05-20T05:45:39.274Z,76.65
2023-05-20T05:48:06.277Z,76.65
2023-05-20T05:50:33.264Z,76.39
2023-05-20T05:53:00.327Z,76.15
2023-05-20T05:55:27.648Z,76.13
2023-05-20T05:57:56.403Z,76.32
2023-05-20T06:00:26.202Z,76.17
2023-05-20T06:02:54.807Z,76.16
2023-05-20T06:05:29.790Z,75.97
2023-05-20T06:07:57.800Z,75.97
2023-05-20T06:10:25.954Z,76.11
2023-05-20T06:12:53.043Z,76.36
2023-05-20T06:15:23.189Z,76.04
2023-05-20T06:17:50.955Z,75.79
2023-05-20T06:20:18.164Z,75.55
2023-05-20T06:22:45.220Z,75.81
2023-05-20T06:25:14.821Z,75.69
2023-05-20T06:27:42.262Z,75.55
2023-05-20T06:30:12.537Z,75.03
2023-05-20T06:32:39.701Z,74.48
2023-05-20T06:35:09.546Z,74.22
2023-05-20T06:37:37.116Z,74.14
2023-05-20T06:40:05.138Z,74.00
2023-05-20T06:42:32.868Z,73.62
2023-05-20T06:45:04.633Z,73.47
2023-05-20T06:47:38.402Z,73.77
2023-05-20T06:50:06.076Z,73.63
2023-05-20T06:52:33.131Z,73.53
2023-05-20T06:55:00.308Z,73.45
2023-05-20T06:57:27.246Z,72.76
2023-05-20T06:59:54.216Z,72.96
2023-05-20T07:02:21.942Z,73.15
2023-05-20T07:04:49.462Z,73.08
2023-05-20T07:07:17.420Z,73.01
2023-05-20T07:09:46.772Z,72.86
2023-05-20T07:12:13.848Z,72.46
2023-05-20T07:14:40.985Z,71.93
2023-05-20T07:17:07.948Z,71.36
2023-05-20T07:19:34.932Z,71.19
2023-05-20T07:22:02.395Z,70.52
2023-05-20T07:24:43.243Z,70.31
2023-05-20T07:27:10.520Z,70.34
2023-05-20T07:29:38.056Z,70.34
2023-05-20T07:32:08.434Z,70.45
2023-05-20T07:34:35.664Z,70.64
2023-05-20T07:37:02.579Z,71.16
2023-05-20T07:39:29.590Z,70.99
2023-05-20T07:41:56.643Z,71.14
2023-05-20T07:44:24.396Z,71.22
2023-05-20T07:46:52.724Z,70.93
2023-05-20T07:49:20.632Z,70.84
2023-05-20T07:51:48.084Z,71.09
2023-05-20T07:54:16.375Z,71.05
2023-05-20T07:56:46.380Z,70.45
2023-05-20T07:59:14.050Z,69.95
2023-05-20T08:01:45.841Z,70.47
2023-05-20T08:04:14.434Z,70.71
2023-05-20T08:06:42.246Z,70.63
2023-05-20T08:09:11.913Z,70.58
2023-05-20T08:11:41.267Z,70.81
2023-05-20T08:14:08.368Z,70.92
2023-05-20T08:16:39.136Z,70.81
2023-05-20T08:19:06.365Z,70.77
2023-05-20T08:21:33.463Z,70.73
2023-05-20T08:24:00.935Z,70.84
2023-05-20T08:26:28.177Z,70.45
2023-05-20T08:28:55.248Z,70.05
2023-05-20T08:31:22.793Z,70.03
2023-05-20T08:33:50.942Z,70.20
2023-05-20T08:36:19.625Z,70.08
2023-05-20T08:38:46.686Z,70.03
2023-05-20T08:41:13.654Z,69.77
2023-05-20T08:43:41.820Z,69.76
2023-05-20T08:46:09.138Z,69.86
2023-05-20T08:48:36.381Z,70.00
2023-05-20T08:51:03.701Z,69.77
2023-05-20T08:53:30.769Z,69.24
2023-05-20T08:56:03.363Z,68.96
2023-05-20T08:58:31.180Z,69.01
2023-05-20T09:00:59.106Z,68.35
2023-05-20T09:03:26.183Z,68.35
2023-05-20T09:05:53.913Z,68.57
2023-05-20T09:08:26.309Z,68.78
2023-05-20T09:10:54.541Z,68.92
2023-05-20T09:13:23.617Z,69.06
2023-05-20T09:15:51.159Z,69.07
2023-05-20T09:18:18.842Z,68.72
2023-05-20T09:20:47.770Z,68.00
2023-05-20T09:23:14.744Z,67.45
2023-05-20T09:25:41.748Z,67.90
2023-05-20T09:28:08.982Z,67.82
2023-05-20T09:30:36.045Z,68.03
2023-05-20T09:33:05.236Z,68.08
2023-05-20T09:35:39.344Z,67.23
2023-05-20T09:38:08.208Z,66.92
2023-05-20T09:40:38.091Z,67.20
2023-05-20T09:43:08.602Z,67.17
2023-05-20T09:45:35.897Z,67.19
2023-05-20T09:48:03.405Z,66.99
2023-05-20T09:50:30.538Z,66.99
2023-05-20T09:52:58.146Z,66.78
2023-05-20T09:55:25.283Z,66.79
2023-05-20T09:59:08.324Z,66.25
2023-05-20T10:01:35.327Z,66.13
2023-05-20T10:04:02.512Z,66.35
2023-05-20T10:06:35.555Z,66.39
2023-05-20T10:09:10.738Z,66.09
2023-05-20T10:11:43.858Z,65.84
2023-05-20T10:14:37.014Z,65.89
2023-05-20T10:17:18.881Z,65.90
2023-05-20T10:19:45.816Z,66.07
2023-05-20T10:22:13.982Z,66.21
2023-05-20T10:24:42.436Z,65.69
2023-05-20T10:27:17.399Z,65.66
2023-05-20T10:29:57.443Z,64.68
2023-05-20T10:32:29.059Z,64.70
2023-05-20T10:35:05.324Z,64.30
2023-05-20T10:37:34.202Z,64.50
2023-05-20T10:40:20.427Z,63.15
2023-05-20T10:42:48.253Z,62.85
2023-05-20T10:45:29.206Z,62.98
2023-05-20T10:47:57.587Z,63.18
2023-05-20T10:50:36.683Z,62.10
2023-05-20T10:53:13.350Z,60.97
2023-05-20T10:55:52.343Z,59.01
2023-05-20T10:58:19.962Z,58.82
2023-05-20T11:00:50.342Z,59.37
2023-05-20T11:03:18.704Z,59.28
2023-05-20T11:05:47.470Z,59.50
2023-05-20T11:10:47.571Z,57.96
2023-05-20T11:13:17.640Z,57.27
2023-05-20T11:15:45.044Z,57.65
2023-05-20T11:18:13.393Z,57.12
2023-05-20T11:20:40.556Z,56.78
2023-05-20T11:23:12.463Z,56.36
2023-05-20T11:25:39.468Z,55.65
2023-05-20T11:28:14.517Z,55.89
2023-05-20T11:30:44.732Z,57.12
2023-05-20T11:33:14.860Z,57.44
2023-05-20T11:35:52.258Z,57.95
2023-05-20T11:38:20.271Z,56.43
2023-05-20T11:40:52.450Z,55.90
2023-05-20T11:43:19.839Z,55.45
2023-05-20T11:45:59.420Z,54.86
2023-05-20T11:48:26.864Z,55.74
2023-05-20T11:50:56.499Z,55.86
2023-05-20T11:53:24.400Z,55.79
2023-05-20T11:55:57.244Z,55.68
2023-05-20T11:58:37.021Z,55.01
2023-05-20T12:01:14.095Z,55.30
2023-05-20T12:03:50.702Z,55.61
2023-05-20T12:06:17.962Z,55.00
2023-05-20T12:08:47.834Z,55.16
2023-05-20T12:11:16.436Z,55.19
2023-05-20T12:14:04.155Z,55.15
2023-05-20T12:16:34.012Z,55.31
2023-05-20T12:19:01.226Z,55.19
2023-05-20T12:21:31.635Z,55.97
2023-05-20T12:24:07.171Z,56.49
2023-05-20T12:26:35.626Z,56.38
2023-05-20T12:29:03.332Z,56.30
2023-05-20T12:31:33.128Z,56.11
2023-05-20T12:34:01.814Z,56.43
2023-05-20T12:36:35.524Z,56.71
2023-05-20T12:39:06.899Z,55.56
2023-05-20T12:41:33.955Z,55.76
2023-05-20T12:44:01.227Z,55.50
2023-05-20T12:46:30.935Z,54.92
2023-05-20T12:48:57.904Z,54.14
2023-05-20T12:51:25.162Z,53.74
2023-05-20T12:53:52.934Z,52.83
2023-05-20T12:56:20.135Z,53.10
2023-05-20T12:58:47.074Z,53.10
2023-05-20T13:01:15.269Z,53.74
2023-05-20T13:03:42.281Z,54.17
2023-05-20T13:06:10.570Z,54.37
2023-05-20T13:08:37.645Z,54.00
2023-05-20T13:11:06.317Z,53.14
2023-05-20T13:13:33.307Z,52.37
2023-05-20T13:16:00.727Z,52.45
2023-05-20T13:18:28.756Z,52.80
2023-05-20T13:20:55.645Z,52.17
2023-05-20T13:23:29.646Z,51.84
2023-05-20T13:25:56.802Z,51.44
2023-05-20T13:28:23.867Z,51.54
2023-05-20T13:30:51.114Z,51.15
2023-05-20T13:33:18.221Z,51.28
2023-05-20T13:35:45.416Z,52.01
2023-05-20T13:38:12.441Z,51.82
2023-05-20T13:40:39.423Z,52.17
2023-05-20T13:43:09.042Z,52.33
2023-05-20T13:45:36.696Z,52.74
2023-05-20T13:48:04.074Z,52.15
2023-05-20T13:50:36.908Z,51.58
2023-05-20T13:53:03.797Z,51.31
2023-05-20T13:55:31.642Z,51.44
2023-05-20T14:01:38.994Z,52.13
2023-05-20T14:04:36.596Z,51.99
2023-05-20T14:14:19.226Z,51.40
2023-05-20T14:16:48.522Z,51.00
2023-05-20T14:19:16.266Z,50.36
2023-05-20T14:21:43.253Z,50.03
2023-05-20T14:24:10.259Z,50.47
2023-05-20T14:26:37.970Z,51.07
2023-05-20T14:29:04.947Z,51.41
2023-05-20T14:31:31.977Z,51.61
2023-05-20T14:34:01.552Z,52.55
2023-05-20T14:36:31.374Z,52.78
2023-05-20T14:38:58.871Z,52.83
2023-05-20T14:41:26.125Z,52.47
2023-05-20T14:43:53.265Z,52.24
2023-05-20T14:46:21.370Z,52.36
2023-05-20T14:48:49.091Z,52.32
2023-05-20T14:51:16.640Z,51.54
2023-05-20T14:53:43.573Z,51.06
2023-05-20T14:56:10.553Z,51.60
2023-05-20T14:58:37.763Z,52.21
2023-05-20T15:01:04.886Z,52.52
2023-05-20T15:03:32.316Z,52.30
2023-05-20T15:05:59.286Z,51.77
2023-05-20T15:08:30.679Z,51.40
2023-05-20T15:11:01.656Z,51.19
2023-05-20T15:13:28.598Z,51.21
2023-05-20T15:15:55.724Z,51.44
2023-05-20T15:18:22.673Z,50.52
2023-05-20T15:20:52.657Z,49.28
2023-05-20T15:29:48.684Z,49.82
2023-05-20T15:32:17.728Z,49.59
2023-05-20T15:34:46.661Z,49.31
2023-05-20T15:37:13.623Z,48.96
2023-05-20T15:39:40.524Z,49.30
2023-05-20T15:42:12.978Z,49.41
2023-05-20T15:47:31.199Z,50.34
2023-05-20T15:50:00.310Z,50.71
2023-05-20T15:52:27.200Z,51.24
2023-05-20T15:54:54.243Z,51.31
2023-05-20T15:57:22.944Z,51.33
2023-05-20T15:59:52.327Z,51.72
2023-05-20T16:02:19.651Z,51.85
2023-05-20T16:04:49.518Z,51.84
2023-05-20T16:07:17.083Z,52.21
2023-05-20T16:09:44.139Z,52.43
2023-05-20T16:12:13.529Z,52.75
2023-05-20T16:14:45.438Z,53.30
2023-05-20T16:17:12.546Z,53.17
2023-05-20T16:19:39.533Z,52.57
2023-05-20T16:22:09.026Z,52.41
2023-05-20T16:24:35.962Z,52.49
2023-05-20T16:27:03.562Z,52.50
2023-05-20T16:29:30.600Z,52.38
2023-05-20T16:32:15.981Z,52.22
2023-05-20T16:34:43.018Z,51.73
2023-05-20T16:37:10.502Z,51.48
2023-05-20T16:39:38.038Z,51.80
2023-05-20T16:42:05.196Z,51.30
2023-05-20T16:44:32.149Z,50.51
2023-05-20T16:46:59.263Z,50.16
2023-05-20T16:49:26.339Z,49.88
2023-05-20T16:51:53.365Z,49.85
2023-05-20T16:54:22.643Z,49.54
2023-05-20T16:56:50.193Z,49.48
2023-05-20T16:59:18.839Z,49.58
2023-05-20T17:01:46.540Z,49.89
2023-05-20T17:04:13.652Z,50.17
2023-05-20T17:06:40.630Z,50.29
2023-05-20T17:09:09.936Z,50.66
2023-05-20T17:11:36.957Z,50.74
2023-05-20T17:14:05.354Z,50.87
2023-05-20T17:16:32.685Z,50.86
2023-05-20T17:18:59.799Z,51.05
2023-05-20T17:21:27.003Z,51.00
2023-05-20T17:23:53.904Z,51.01
2023-05-20T17:26:20.804Z,50.95
2023-05-20T17:28:47.799Z,51.30
2023-05-20T17:31:15.275Z,51.50
2023-05-20T17:33:42.298Z,51.51
2023-05-20T17:36:09.624Z,51.52
2023-05-20T17:38:36.611Z,51.61
2023-05-20T17:41:03.560Z,51.64
2023-05-20T17:43:30.606Z,51.86
2023-05-20T17:45:57.708Z,51.96
2023-05-20T17:48:24.645Z,51.95
2023-05-20T17:50:53.985Z,52.11
2023-05-20T17:53:22.100Z,52.33
2023-05-20T17:55:49.578Z,52.38
2023-05-20T17:58:17.035Z,52.33
2023-05-20T18:00:44.356Z,52.01
2023-05-20T18:03:11.720Z,51.86
2023-05-20T18:05:38.803Z,51.64
2023-05-20T18:08:06.105Z,51.50
2023-05-20T18:10:33.216Z,51.47
2023-05-20T18:13:01.314Z,51.59
2023-05-20T18:15:28.494Z,51.91
2023-05-20T18:17:55.865Z,52.10
2023-05-20T18:20:22.884Z,51.95
2023-05-20T18:22:52.439Z,51.86
2023-05-20T18:25:19.429Z,51.81
2023-05-20T18:27:46.576Z,52.26
2023-05-20T18:30:24.243Z,52.52
2023-05-20T18:32:51.872Z,52.66
2023-05-20T18:35:19.060Z,52.98
2023-05-20T18:37:46.953Z,53.22
2023-05-20T18:40:14.069Z,53.44
2023-05-20T18:42:41.509Z,53.77
2023-05-20T18:45:09.227Z,54.29
2023-05-20T18:47:36.382Z,54.82
2023-05-20T18:50:05.014Z,55.38
2023-05-20T18:52:31.975Z,55.61
2023-05-20T18:54:59.360Z,55.94
2023-05-20T18:57:26.607Z,55.98
2023-05-20T18:59:54.149Z,56.28
2023-05-20T19:02:23.879Z,56.59
2023-05-20T19:11:04.256Z,57.72
2023-05-20T19:13:31.602Z,58.12
2023-05-20T19:16:04.587Z,58.04
2023-05-20T19:18:32.529Z,57.99
2023-05-20T19:20:59.500Z,57.82
2023-05-20T19:23:26.474Z,57.85
2023-05-20T19:25:53.888Z,57.82
2023-05-20T19:28:25.411Z,57.73
2023-05-20T19:30:53.442Z,57.85
2023-05-20T19:33:23.294Z,57.94
2023-05-20T19:35:52.231Z,57.93
2023-05-20T19:38:19.955Z,57.73
2023-05-20T19:40:48.650Z,57.84
2023-05-20T19:43:15.733Z,57.70
2023-05-20T19:45:43.329Z,57.86
2023-05-20T19:48:10.433Z,58.12
2023-05-20T19:50:38.042Z,58.08
2023-05-20T19:53:09.674Z,58.16
2023-05-20T19:55:37.535Z,58.08
2023-05-20T19:58:05.215Z,58.09
2023-05-20T20:00:32.142Z,58.21
2023-05-20T20:02:59.458Z,58.23
2023-05-20T20:05:27.057Z,58.40
2023-05-20T20:07:56.300Z,58.68
2023-05-20T20:10:23.664Z,58.62
2023-05-20T20:12:53.845Z,58.53
2023-05-20T20:15:24.276Z,58.49
2023-05-20T20:17:53.434Z,58.58
2023-05-20T20:20:24.871Z,58.47
2023-05-20T20:22:52.965Z,58.37
2023-05-20T20:25:20.654Z,58.67
2023-05-20T20:27:57.585Z,58.56
2023-05-20T20:30:26.828Z,58.61
2023-05-20T20:33:01.593Z,58.64
2023-05-20T20:35:31.036Z,59.02
2023-05-20T20:37:58.003Z,59.39
2023-05-20T20:40:28.468Z,59.61
2023-05-20T20:43:00.964Z,60.00
2023-05-20T20:45:29.614Z,60.31
2023-05-20T20:47:58.145Z,60.41
2023-05-20T20:50:26.068Z,60.60
2023-05-20T20:52:52.989Z,60.71
2023-05-20T20:55:21.344Z,60.98
2023-05-20T20:57:48.254Z,61.21
2023-05-20T21:00:19.190Z,61.29
2023-05-20T21:02:46.207Z,61.42
2023-05-20T21:05:16.841Z,61.63
2023-05-20T21:07:46.210Z,61.68
2023-05-20T21:10:13.303Z,61.72
2023-05-20T21:12:40.932Z,61.65
2023-05-20T21:15:08.550Z,61.68
2023-05-20T21:17:35.991Z,61.71
2023-05-20T21:20:07.907Z,61.89
2023-05-20T21:22:35.094Z,62.02
2023-05-20T21:25:02.205Z,62.04
2023-05-20T21:27:29.404Z,61.99
2023-05-20T21:29:58.701Z,62.13
2023-05-20T21:32:30.848Z,62.34
2023-05-20T21:34:58.426Z,62.28
2023-05-20T21:37:26.569Z,62.55
2023-05-20T21:39:59.594Z,62.60
2023-05-20T21:42:26.572Z,62.71
2023-05-20T21:44:56.016Z,62.81
2023-05-20T21:47:22.914Z,62.99
2023-05-20T21:49:49.865Z,63.25
2023-05-20T21:52:16.738Z,63.35
2023-05-20T21:54:43.685Z,63.29
2023-05-20T21:57:10.616Z,63.09
2023-05-20T21:59:37.638Z,63.06
2023-05-20T22:02:04.839Z,62.95
2023-05-20T22:04:33.499Z,62.93
2023-05-20T22:07:02.060Z,62.98
2023-05-20T22:09:31.419Z,62.54
2023-05-20T22:11:59.926Z,62.50
2023-05-20T22:14:27.376Z,62.48
2023-05-20T22:16:54.560Z,62.42
2023-05-20T22:19:21.883Z,62.71
2023-05-20T22:21:50.555Z,62.84
2023-05-20T22:24:18.372Z,62.92
2023-05-20T22:26:46.442Z,63.25
2023-05-20T22:29:13.352Z,63.41
2023-05-20T22:31:41.172Z,63.59
2023-05-20T22:34:15.796Z,63.68
2023-05-20T22:36:45.483Z,63.76
2023-05-20T22:39:13.596Z,63.61
2023-05-20T22:41:42.049Z,63.40
2023-05-20T22:44:09.215Z,63.19
2023-05-20T22:46:36.165Z,63.01
2023-05-20T22:49:03.376Z,62.91
2023-05-20T22:51:34.583Z,62.99
2023-05-20T22:54:01.536Z,62.85
2023-05-20T22:56:29.821Z,62.97
2023-05-20T22:58:56.749Z,62.76
2023-05-20T23:01:24.231Z,62.74
2023-05-20T23:03:54.534Z,62.60
2023-05-20T23:06:22.693Z,62.48
2023-05-20T23:08:52.634Z,62.59
2023-05-20T23:11:20.652Z,62.48
2023-05-20T23:13:47.755Z,62.90
2023-05-20T23:16:14.774Z,62.83
2023-05-20T23:18:41.791Z,62.82
2023-05-20T23:21:08.842Z,62.71
2023-05-20T23:23:35.763Z,62.95
2023-05-20T23:26:03.206Z,62.81
2023-05-20T23:28:30.312Z,62.92
2023-05-20T23:30:57.365Z,62.88
2023-05-20T23:33:27.292Z,62.93
2023-05-20T23:35:54.384Z,62.84
2023-05-20T23:38:26.218Z,62.89
2023-05-20T23:40:53.227Z,62.92
2023-05-20T23:43:20.331Z,62.85
2023-05-20T23:45:47.468Z,62.98
2023-05-20T23:48:14.318Z,63.20
2023-05-20T23:50:41.343Z,63.16
2023-05-20T23:53:08.422Z,63.45
2023-05-20T23:55:39.190Z,63.40
2023-05-20T23:58:07.763Z,63.51
